sensor_id;sensor_type;location;lat;lon;timestamp;temperature;humidity
26909;DHT22;14477;51.038;4.588;2023-08-21T00:02:02;24.00;64.30
26909;DHT22;14477;51.038;4.588;2023-08-21T00:04:28;23.90;64.40
26909;DHT22;14477;51.038;4.588;2023-08-21T00:06:53;23.90;64.40
26909;DHT22;14477;51.038;4.588;2023-08-21T00:09:19;23.90;64.60
26909;DHT22;14477;51.038;4.588;2023-08-21T00:11:45;23.80;64.90
26909;DHT22;14477;51.038;4.588;2023-08-21T00:14:11;23.80;64.90
26909;DHT22;14477;51.038;4.588;2023-08-21T00:16:36;23.80;65.10
26909;DHT22;14477;51.038;4.588;2023-08-21T00:19:02;23.70;65.20
26909;DHT22;14477;51.038;4.588;2023-08-21T00:21:28;23.70;65.50
26909;DHT22;14477;51.038;4.588;2023-08-21T00:23:55;23.70;65.70
26909;DHT22;14477;51.038;4.588;2023-08-21T00:26:23;23.70;65.90
26909;DHT22;14477;51.038;4.588;2023-08-21T00:28:49;23.60;65.90
26909;DHT22;14477;51.038;4.588;2023-08-21T00:31:14;23.70;66.00
26909;DHT22;14477;51.038;4.588;2023-08-21T00:33:40;23.50;66.00
26909;DHT22;14477;51.038;4.588;2023-08-21T00:36:06;23.50;66.20
26909;DHT22;14477;51.038;4.588;2023-08-21T00:38:32;23.50;66.30
26909;DHT22;14477;51.038;4.588;2023-08-21T00:40:58;23.50;66.50
26909;DHT22;14477;51.038;4.588;2023-08-21T00:43:23;23.50;66.70
26909;DHT22;14477;51.038;4.588;2023-08-21T00:45:50;23.60;67.30
26909;DHT22;14477;51.038;4.588;2023-08-21T00:48:16;23.40;67.00
26909;DHT22;14477;51.038;4.588;2023-08-21T00:50:43;24.70;68.30
26909;DHT22;14477;51.038;4.588;2023-08-21T00:53:09;23.40;67.20
26909;DHT22;14477;51.038;4.588;2023-08-21T00:55:35;23.40;67.20
26909;DHT22;14477;51.038;4.588;2023-08-21T00:58:02;23.40;67.30
26909;DHT22;14477;51.038;4.588;2023-08-21T01:00:30;23.30;67.40
26909;DHT22;14477;51.038;4.588;2023-08-21T01:02:56;23.30;67.70
26909;DHT22;14477;51.038;4.588;2023-08-21T01:05:23;22.80;68.20
26909;DHT22;14477;51.038;4.588;2023-08-21T01:08:05;23.20;67.60
26909;DHT22;14477;51.038;4.588;2023-08-21T01:10:43;23.20;69.20
26909;DHT22;14477;51.038;4.588;2023-08-21T01:13:22;23.10;68.30
26909;DHT22;14477;51.038;4.588;2023-08-21T01:15:51;23.00;68.00
26909;DHT22;14477;51.038;4.588;2023-08-21T01:18:20;23.00;68.00
26909;DHT22;14477;51.038;4.588;2023-08-21T01:20:47;22.90;67.90
26909;DHT22;14477;51.038;4.588;2023-08-21T01:23:36;22.80;67.90
26909;DHT22;14477;51.038;4.588;2023-08-21T01:26:03;22.80;69.90
26909;DHT22;14477;51.038;4.588;2023-08-21T01:28:30;22.70;68.10
26909;DHT22;14477;51.038;4.588;2023-08-21T01:31:08;22.70;68.30
26909;DHT22;14477;51.038;4.588;2023-08-21T01:33:43;22.60;69.60
26909;DHT22;14477;51.038;4.588;2023-08-21T01:36:10;22.50;69.00
26909;DHT22;14477;51.038;4.588;2023-08-21T01:38:36;22.50;68.50
26909;DHT22;14477;51.038;4.588;2023-08-21T01:41:02;22.50;68.60
26909;DHT22;14477;51.038;4.588;2023-08-21T01:43:28;22.40;68.60
26909;DHT22;14477;51.038;4.588;2023-08-21T01:45:54;22.40;68.80
26909;DHT22;14477;51.038;4.588;2023-08-21T01:48:20;22.30;69.00
26909;DHT22;14477;51.038;4.588;2023-08-21T01:50:46;22.30;68.90
26909;DHT22;14477;51.038;4.588;2023-08-21T01:53:12;22.20;69.00
26909;DHT22;14477;51.038;4.588;2023-08-21T01:55:38;22.40;70.10
26909;DHT22;14477;51.038;4.588;2023-08-21T01:58:03;22.20;69.20
26909;DHT22;14477;51.038;4.588;2023-08-21T02:00:29;22.20;69.30
26909;DHT22;14477;51.038;4.588;2023-08-21T02:02:55;22.10;69.50
26909;DHT22;14477;51.038;4.588;2023-08-21T02:05:21;22.00;69.50
26909;DHT22;14477;51.038;4.588;2023-08-21T02:07:46;22.00;69.70
26909;DHT22;14477;51.038;4.588;2023-08-21T02:10:12;22.00;69.90
26909;DHT22;14477;51.038;4.588;2023-08-21T02:12:39;22.00;70.00
26909;DHT22;14477;51.038;4.588;2023-08-21T02:15:05;21.90;69.90
26909;DHT22;14477;51.038;4.588;2023-08-21T02:17:31;21.80;70.10
26909;DHT22;14477;51.038;4.588;2023-08-21T02:19:57;21.80;70.20
26909;DHT22;14477;51.038;4.588;2023-08-21T02:22:23;21.80;70.40
26909;DHT22;14477;51.038;4.588;2023-08-21T02:24:49;21.80;70.50
26909;DHT22;14477;51.038;4.588;2023-08-21T02:27:15;21.70;70.60
26909;DHT22;14477;51.038;4.588;2023-08-21T02:29:40;21.70;70.70
26909;DHT22;14477;51.038;4.588;2023-08-21T02:32:06;21.70;70.90
26909;DHT22;14477;51.038;4.588;2023-08-21T02:34:32;21.70;71.00
26909;DHT22;14477;51.038;4.588;2023-08-21T02:36:58;21.70;71.10
26909;DHT22;14477;51.038;4.588;2023-08-21T02:39:24;21.60;71.20
26909;DHT22;14477;51.038;4.588;2023-08-21T02:41:49;21.70;71.30
26909;DHT22;14477;51.038;4.588;2023-08-21T02:44:15;21.60;71.30
26909;DHT22;14477;51.038;4.588;2023-08-21T02:46:41;21.60;71.50
26909;DHT22;14477;51.038;4.588;2023-08-21T02:49:07;21.50;71.50
26909;DHT22;14477;51.038;4.588;2023-08-21T02:51:32;21.50;71.50
26909;DHT22;14477;51.038;4.588;2023-08-21T02:53:58;21.50;71.70
26909;DHT22;14477;51.038;4.588;2023-08-21T02:56:24;21.60;71.70
26909;DHT22;14477;51.038;4.588;2023-08-21T02:58:49;21.50;71.70
26909;DHT22;14477;51.038;4.588;2023-08-21T03:01:15;21.50;71.80
26909;DHT22;14477;51.038;4.588;2023-08-21T03:03:41;21.50;71.80
26909;DHT22;14477;51.038;4.588;2023-08-21T03:06:06;21.40;71.80
26909;DHT22;14477;51.038;4.588;2023-08-21T03:08:32;21.40;71.90
26909;DHT22;14477;51.038;4.588;2023-08-21T03:10:58;21.30;71.90
26909;DHT22;14477;51.038;4.588;2023-08-21T03:13:23;21.30;72.10
26909;DHT22;14477;51.038;4.588;2023-08-21T03:15:49;21.30;72.10
26909;DHT22;14477;51.038;4.588;2023-08-21T03:18:15;21.20;72.10
26909;DHT22;14477;51.038;4.588;2023-08-21T03:20:45;21.20;72.20
26909;DHT22;14477;51.038;4.588;2023-08-21T03:23:12;21.20;72.90
26909;DHT22;14477;51.038;4.588;2023-08-21T03:25:37;21.10;72.40
26909;DHT22;14477;51.038;4.588;2023-08-21T03:28:03;21.10;72.50
26909;DHT22;14477;51.038;4.588;2023-08-21T03:30:35;21.10;72.60
26909;DHT22;14477;51.038;4.588;2023-08-21T03:33:03;21.00;73.60
26909;DHT22;14477;51.038;4.588;2023-08-21T03:35:28;21.00;72.70
26909;DHT22;14477;51.038;4.588;2023-08-21T03:37:54;21.00;72.90
26909;DHT22;14477;51.038;4.588;2023-08-21T03:40:20;20.90;72.90
26909;DHT22;14477;51.038;4.588;2023-08-21T03:42:45;20.90;73.00
26909;DHT22;14477;51.038;4.588;2023-08-21T03:45:11;20.90;73.20
26909;DHT22;14477;51.038;4.588;2023-08-21T03:47:37;20.80;73.20
26909;DHT22;14477;51.038;4.588;2023-08-21T03:50:03;20.80;73.30
26909;DHT22;14477;51.038;4.588;2023-08-21T03:52:29;20.80;73.40
26909;DHT22;14477;51.038;4.588;2023-08-21T03:54:57;20.80;73.60
26909;DHT22;14477;51.038;4.588;2023-08-21T03:57:22;20.80;73.80
26909;DHT22;14477;51.038;4.588;2023-08-21T03:59:48;20.70;73.90
26909;DHT22;14477;51.038;4.588;2023-08-21T04:02:14;20.80;74.00
26909;DHT22;14477;51.038;4.588;2023-08-21T04:04:40;20.70;74.00
26909;DHT22;14477;51.038;4.588;2023-08-21T04:07:05;20.70;74.00
26909;DHT22;14477;51.038;4.588;2023-08-21T04:09:31;20.70;74.20
26909;DHT22;14477;51.038;4.588;2023-08-21T04:11:57;20.70;74.30
26909;DHT22;14477;51.038;4.588;2023-08-21T04:14:22;20.70;74.40
26909;DHT22;14477;51.038;4.588;2023-08-21T04:16:48;20.70;74.50
26909;DHT22;14477;51.038;4.588;2023-08-21T04:19:14;20.60;74.50
26909;DHT22;14477;51.038;4.588;2023-08-21T04:21:40;20.60;74.50
26909;DHT22;14477;51.038;4.588;2023-08-21T04:24:05;20.60;74.50
26909;DHT22;14477;51.038;4.588;2023-08-21T04:26:31;20.60;74.60
26909;DHT22;14477;51.038;4.588;2023-08-21T04:28:57;20.60;75.20
26909;DHT22;14477;51.038;4.588;2023-08-21T04:31:22;20.50;74.80
26909;DHT22;14477;51.038;4.588;2023-08-21T04:33:48;20.50;74.90
26909;DHT22;14477;51.038;4.588;2023-08-21T04:36:15;20.50;74.90
26909;DHT22;14477;51.038;4.588;2023-08-21T04:38:41;20.50;75.00
26909;DHT22;14477;51.038;4.588;2023-08-21T04:41:08;20.50;75.10
26909;DHT22;14477;51.038;4.588;2023-08-21T04:43:34;20.40;75.10
26909;DHT22;14477;51.038;4.588;2023-08-21T04:46:00;20.30;75.10
26909;DHT22;14477;51.038;4.588;2023-08-21T04:48:26;20.40;75.10
26909;DHT22;14477;51.038;4.588;2023-08-21T04:50:52;20.30;75.20
26909;DHT22;14477;51.038;4.588;2023-08-21T04:53:17;20.30;75.30
26909;DHT22;14477;51.038;4.588;2023-08-21T04:55:43;20.30;75.40
26909;DHT22;14477;51.038;4.588;2023-08-21T04:58:09;20.20;75.50
26909;DHT22;14477;51.038;4.588;2023-08-21T05:00:36;20.20;75.60
26909;DHT22;14477;51.038;4.588;2023-08-21T05:03:02;20.20;75.60
26909;DHT22;14477;51.038;4.588;2023-08-21T05:05:28;20.20;75.80
26909;DHT22;14477;51.038;4.588;2023-08-21T05:07:53;20.10;75.90
26909;DHT22;14477;51.038;4.588;2023-08-21T05:10:22;20.10;76.00
26909;DHT22;14477;51.038;4.588;2023-08-21T05:12:47;20.10;76.20
26909;DHT22;14477;51.038;4.588;2023-08-21T05:15:13;20.10;76.30
26909;DHT22;14477;51.038;4.588;2023-08-21T05:17:40;20.10;76.60
26909;DHT22;14477;51.038;4.588;2023-08-21T05:20:06;20.10;76.70
26909;DHT22;14477;51.038;4.588;2023-08-21T05:22:32;20.10;76.90
26909;DHT22;14477;51.038;4.588;2023-08-21T05:24:57;20.10;77.10
26909;DHT22;14477;51.038;4.588;2023-08-21T05:27:23;20.10;77.20
26909;DHT22;14477;51.038;4.588;2023-08-21T05:29:49;20.20;77.40
26909;DHT22;14477;51.038;4.588;2023-08-21T05:32:16;20.20;77.40
26909;DHT22;14477;51.038;4.588;2023-08-21T05:34:42;20.20;77.60
26909;DHT22;14477;51.038;4.588;2023-08-21T05:37:08;20.20;77.70
26909;DHT22;14477;51.038;4.588;2023-08-21T05:39:33;20.30;77.80
26909;DHT22;14477;51.038;4.588;2023-08-21T05:41:59;20.30;77.90
26909;DHT22;14477;51.038;4.588;2023-08-21T05:44:25;20.30;77.90
26909;DHT22;14477;51.038;4.588;2023-08-21T05:46:51;20.30;78.00
26909;DHT22;14477;51.038;4.588;2023-08-21T05:49:16;20.40;78.10
26909;DHT22;14477;51.038;4.588;2023-08-21T05:51:42;20.40;78.20
26909;DHT22;14477;51.038;4.588;2023-08-21T05:54:08;20.40;78.20
26909;DHT22;14477;51.038;4.588;2023-08-21T05:56:33;20.50;78.40
26909;DHT22;14477;51.038;4.588;2023-08-21T05:58:59;20.50;78.50
26909;DHT22;14477;51.038;4.588;2023-08-21T06:01:25;20.50;78.60
26909;DHT22;14477;51.038;4.588;2023-08-21T06:03:51;20.60;78.70
26909;DHT22;14477;51.038;4.588;2023-08-21T06:06:17;20.60;78.80
26909;DHT22;14477;51.038;4.588;2023-08-21T06:08:43;20.70;79.00
26909;DHT22;14477;51.038;4.588;2023-08-21T06:11:09;20.70;78.90
26909;DHT22;14477;51.038;4.588;2023-08-21T06:13:35;20.80;79.10
26909;DHT22;14477;51.038;4.588;2023-08-21T06:16:00;20.80;79.10
26909;DHT22;14477;51.038;4.588;2023-08-21T06:18:26;20.90;79.10
26909;DHT22;14477;51.038;4.588;2023-08-21T06:20:52;20.90;79.30
26909;DHT22;14477;51.038;4.588;2023-08-21T06:23:21;21.00;79.30
26909;DHT22;14477;51.038;4.588;2023-08-21T06:25:49;21.00;79.40
26909;DHT22;14477;51.038;4.588;2023-08-21T06:28:15;21.10;79.80
26909;DHT22;14477;51.038;4.588;2023-08-21T06:30:41;21.10;79.50
26909;DHT22;14477;51.038;4.588;2023-08-21T06:33:07;21.20;79.60
26909;DHT22;14477;51.038;4.588;2023-08-21T06:35:36;21.30;81.10
26909;DHT22;14477;51.038;4.588;2023-08-21T06:38:03;21.30;80.00
26909;DHT22;14477;51.038;4.588;2023-08-21T06:40:29;21.40;79.70
26909;DHT22;14477;51.038;4.588;2023-08-21T06:42:55;21.40;79.70
26909;DHT22;14477;51.038;4.588;2023-08-21T06:45:20;21.50;79.80
26909;DHT22;14477;51.038;4.588;2023-08-21T06:47:46;21.50;79.80
26909;DHT22;14477;51.038;4.588;2023-08-21T06:50:12;21.60;79.80
26909;DHT22;14477;51.038;4.588;2023-08-21T06:52:39;21.70;79.80
26909;DHT22;14477;51.038;4.588;2023-08-21T06:55:05;21.70;79.70
26909;DHT22;14477;51.038;4.588;2023-08-21T06:57:31;21.80;79.90
26909;DHT22;14477;51.038;4.588;2023-08-21T06:59:57;21.90;79.80
26909;DHT22;14477;51.038;4.588;2023-08-21T07:02:22;21.90;79.90
26909;DHT22;14477;51.038;4.588;2023-08-21T07:04:48;22.00;79.90
26909;DHT22;14477;51.038;4.588;2023-08-21T07:07:13;22.10;80.00
26909;DHT22;14477;51.038;4.588;2023-08-21T07:09:39;22.20;80.10
26909;DHT22;14477;51.038;4.588;2023-08-21T07:12:06;22.30;80.10
26909;DHT22;14477;51.038;4.588;2023-08-21T07:14:32;22.40;80.10
26909;DHT22;14477;51.038;4.588;2023-08-21T07:16:57;22.40;80.10
26909;DHT22;14477;51.038;4.588;2023-08-21T07:19:23;22.50;80.10
26909;DHT22;14477;51.038;4.588;2023-08-21T07:21:49;22.60;80.10
26909;DHT22;14477;51.038;4.588;2023-08-21T07:24:15;22.70;80.10
26909;DHT22;14477;51.038;4.588;2023-08-21T07:26:40;22.80;80.00
26909;DHT22;14477;51.038;4.588;2023-08-21T07:29:06;22.90;80.00
26909;DHT22;14477;51.038;4.588;2023-08-21T07:31:33;23.00;79.90
26909;DHT22;14477;51.038;4.588;2023-08-21T07:33:59;23.00;79.80
26909;DHT22;14477;51.038;4.588;2023-08-21T07:36:24;23.20;80.00
26909;DHT22;14477;51.038;4.588;2023-08-21T07:38:50;23.20;80.00
26909;DHT22;14477;51.038;4.588;2023-08-21T07:41:16;23.30;80.00
26909;DHT22;14477;51.038;4.588;2023-08-21T07:43:43;23.50;80.00
26909;DHT22;14477;51.038;4.588;2023-08-21T07:46:12;23.60;79.90
26909;DHT22;14477;51.038;4.588;2023-08-21T07:48:44;23.70;79.90
26909;DHT22;14477;51.038;4.588;2023-08-21T07:51:10;23.80;80.00
26909;DHT22;14477;51.038;4.588;2023-08-21T07:53:35;23.90;80.00
26909;DHT22;14477;51.038;4.588;2023-08-21T07:56:02;24.00;79.80
26909;DHT22;14477;51.038;4.588;2023-08-21T07:58:29;24.10;79.60
26909;DHT22;14477;51.038;4.588;2023-08-21T08:00:56;24.20;79.70
26909;DHT22;14477;51.038;4.588;2023-08-21T08:03:22;24.40;80.20
26909;DHT22;14477;51.038;4.588;2023-08-21T08:05:47;24.40;79.80
26909;DHT22;14477;51.038;4.588;2023-08-21T08:08:13;24.50;79.70
26909;DHT22;14477;51.038;4.588;2023-08-21T08:10:40;24.60;79.70
26909;DHT22;14477;51.038;4.588;2023-08-21T08:13:06;24.70;79.50
26909;DHT22;14477;51.038;4.588;2023-08-21T08:15:33;24.80;79.40
26909;DHT22;14477;51.038;4.588;2023-08-21T08:18:03;25.00;79.50
26909;DHT22;14477;51.038;4.588;2023-08-21T08:20:30;25.10;79.70
26909;DHT22;14477;51.038;4.588;2023-08-21T08:22:56;25.30;80.40
26909;DHT22;14477;51.038;4.588;2023-08-21T08:25:22;25.50;81.80
26909;DHT22;14477;51.038;4.588;2023-08-21T08:27:48;25.90;83.40
26909;DHT22;14477;51.038;4.588;2023-08-21T08:30:14;26.30;84.90
26909;DHT22;14477;51.038;4.588;2023-08-21T08:32:42;26.90;85.90
26909;DHT22;14477;51.038;4.588;2023-08-21T08:35:14;27.40;85.80
26909;DHT22;14477;51.038;4.588;2023-08-21T08:37:41;28.10;84.90
26909;DHT22;14477;51.038;4.588;2023-08-21T08:40:08;28.60;85.50
26909;DHT22;14477;51.038;4.588;2023-08-21T08:42:35;29.20;84.50
26909;DHT22;14477;51.038;4.588;2023-08-21T08:45:02;29.80;83.80
26909;DHT22;14477;51.038;4.588;2023-08-21T08:47:32;30.40;82.60
26909;DHT22;14477;51.038;4.588;2023-08-21T08:50:02;30.90;80.80
26909;DHT22;14477;51.038;4.588;2023-08-21T08:52:30;31.40;80.30
26909;DHT22;14477;51.038;4.588;2023-08-21T08:54:57;31.90;79.80
26909;DHT22;14477;51.038;4.588;2023-08-21T08:57:23;32.40;78.10
26909;DHT22;14477;51.038;4.588;2023-08-21T08:59:49;32.80;77.30
26909;DHT22;14477;51.038;4.588;2023-08-21T09:02:18;33.10;75.90
26909;DHT22;14477;51.038;4.588;2023-08-21T09:04:43;33.40;75.00
26909;DHT22;14477;51.038;4.588;2023-08-21T09:07:10;33.70;74.10
26909;DHT22;14477;51.038;4.588;2023-08-21T09:09:41;34.10;73.10
26909;DHT22;14477;51.038;4.588;2023-08-21T09:12:11;34.40;70.00
26909;DHT22;14477;51.038;4.588;2023-08-21T09:14:40;34.60;68.00
26909;DHT22;14477;51.038;4.588;2023-08-21T09:17:07;34.80;69.20
26909;DHT22;14477;51.038;4.588;2023-08-21T09:19:33;35.10;68.40
26909;DHT22;14477;51.038;4.588;2023-08-21T09:22:00;35.30;67.30
26909;DHT22;14477;51.038;4.588;2023-08-21T09:24:32;35.50;66.40
26909;DHT22;14477;51.038;4.588;2023-08-21T09:26:59;35.80;65.60
26909;DHT22;14477;51.038;4.588;2023-08-21T09:29:27;36.00;64.60
26909;DHT22;14477;51.038;4.588;2023-08-21T09:32:03;36.20;63.90
26909;DHT22;14477;51.038;4.588;2023-08-21T09:34:36;36.50;63.20
26909;DHT22;14477;51.038;4.588;2023-08-21T09:37:06;36.70;59.60
26909;DHT22;14477;51.038;4.588;2023-08-21T09:39:36;36.90;59.00
26909;DHT22;14477;51.038;4.588;2023-08-21T09:42:09;37.00;59.70
26909;DHT22;14477;51.038;4.588;2023-08-21T09:44:39;37.20;56.50
26909;DHT22;14477;51.038;4.588;2023-08-21T09:47:10;37.50;56.60
26909;DHT22;14477;51.038;4.588;2023-08-21T09:49:37;37.70;56.10
26909;DHT22;14477;51.038;4.588;2023-08-21T09:52:08;37.80;56.80
26909;DHT22;14477;51.038;4.588;2023-08-21T09:54:42;37.90;54.10
26909;DHT22;14477;51.038;4.588;2023-08-21T09:57:07;38.00;52.80
26909;DHT22;14477;51.038;4.588;2023-08-21T09:59:35;38.00;53.80
26909;DHT22;14477;51.038;4.588;2023-08-21T10:02:02;38.00;53.30
26909;DHT22;14477;51.038;4.588;2023-08-21T10:04:32;37.90;52.20
26909;DHT22;14477;51.038;4.588;2023-08-21T10:07:00;37.70;51.40
26909;DHT22;14477;51.038;4.588;2023-08-21T10:09:29;37.60;51.90
26909;DHT22;14477;51.038;4.588;2023-08-21T10:11:55;37.50;51.60
26909;DHT22;14477;51.038;4.588;2023-08-21T10:14:23;37.40;51.00
26909;DHT22;14477;51.038;4.588;2023-08-21T10:16:52;37.30;50.00
26909;DHT22;14477;51.038;4.588;2023-08-21T10:19:18;37.10;48.90
26909;DHT22;14477;51.038;4.588;2023-08-21T10:21:47;37.10;49.90
26909;DHT22;14477;51.038;4.588;2023-08-21T10:24:33;37.00;49.10
26909;DHT22;14477;51.038;4.588;2023-08-21T10:26:59;37.00;47.60
26909;DHT22;14477;51.038;4.588;2023-08-21T10:29:25;37.10;49.30
26909;DHT22;14477;51.038;4.588;2023-08-21T10:32:02;37.20;48.70
26909;DHT22;14477;51.038;4.588;2023-08-21T10:34:34;37.10;46.50
26909;DHT22;14477;51.038;4.588;2023-08-21T10:39:27;37.10;48.40
26909;DHT22;14477;51.038;4.588;2023-08-21T10:42:07;37.00;47.90
26909;DHT22;14477;51.038;4.588;2023-08-21T10:47:22;37.20;47.10
26909;DHT22;14477;51.038;4.588;2023-08-21T10:50:00;37.30;48.50
26909;DHT22;14477;51.038;4.588;2023-08-21T10:52:30;37.40;47.00
26909;DHT22;14477;51.038;4.588;2023-08-21T10:55:00;37.60;47.70
26909;DHT22;14477;51.038;4.588;2023-08-21T10:57:28;37.70;46.70
26909;DHT22;14477;51.038;4.588;2023-08-21T11:02:25;37.80;46.20
26909;DHT22;14477;51.038;4.588;2023-08-21T11:04:52;37.80;46.50
26909;DHT22;14477;51.038;4.588;2023-08-21T11:07:18;38.00;47.50
26909;DHT22;14477;51.038;4.588;2023-08-21T11:09:44;38.20;47.80
26909;DHT22;14477;51.038;4.588;2023-08-21T11:12:12;38.50;47.40
26909;DHT22;14477;51.038;4.588;2023-08-21T11:14:38;38.80;46.80
26909;DHT22;14477;51.038;4.588;2023-08-21T11:17:04;39.10;46.70
26909;DHT22;14477;51.038;4.588;2023-08-21T11:19:32;39.30;46.20
26909;DHT22;14477;51.038;4.588;2023-08-21T11:21:58;39.60;45.80
26909;DHT22;14477;51.038;4.588;2023-08-21T11:27:11;39.90;43.60
26909;DHT22;14477;51.038;4.588;2023-08-21T11:29:48;40.10;43.90
26909;DHT22;14477;51.038;4.588;2023-08-21T11:32:19;40.30;43.20
26909;DHT22;14477;51.038;4.588;2023-08-21T11:34:49;40.30;43.60
26909;DHT22;14477;51.038;4.588;2023-08-21T11:37:20;40.30;42.50
26909;DHT22;14477;51.038;4.588;2023-08-21T11:39:48;40.40;43.00
26909;DHT22;14477;51.038;4.588;2023-08-21T11:42:15;40.60;43.00
26909;DHT22;14477;51.038;4.588;2023-08-21T11:44:50;40.70;43.20
26909;DHT22;14477;51.038;4.588;2023-08-21T11:47:18;40.80;41.40
26909;DHT22;14477;51.038;4.588;2023-08-21T11:49:44;40.80;42.30
26909;DHT22;14477;51.038;4.588;2023-08-21T11:52:13;41.00;42.40
26909;DHT22;14477;51.038;4.588;2023-08-21T11:54:41;41.00;41.80
26909;DHT22;14477;51.038;4.588;2023-08-21T11:57:16;41.20;41.60
26909;DHT22;14477;51.038;4.588;2023-08-21T11:59:42;41.30;39.90
26909;DHT22;14477;51.038;4.588;2023-08-21T12:02:16;41.40;41.10
26909;DHT22;14477;51.038;4.588;2023-08-21T12:04:43;41.50;39.80
26909;DHT22;14477;51.038;4.588;2023-08-21T12:07:09;41.40;39.80
26909;DHT22;14477;51.038;4.588;2023-08-21T12:09:35;41.20;38.80
26909;DHT22;14477;51.038;4.588;2023-08-21T12:12:01;40.90;38.40
26909;DHT22;14477;51.038;4.588;2023-08-21T12:14:29;40.60;38.90
26909;DHT22;14477;51.038;4.588;2023-08-21T12:16:55;40.40;39.40
26909;DHT22;14477;51.038;4.588;2023-08-21T12:19:24;40.30;39.80
26909;DHT22;14477;51.038;4.588;2023-08-21T12:21:51;40.40;39.80
26909;DHT22;14477;51.038;4.588;2023-08-21T12:24:17;40.50;40.80
26909;DHT22;14477;51.038;4.588;2023-08-21T12:26:43;40.70;40.40
26909;DHT22;14477;51.038;4.588;2023-08-21T12:29:09;40.80;40.20
26909;DHT22;14477;51.038;4.588;2023-08-21T12:31:35;40.90;39.70
26909;DHT22;14477;51.038;4.588;2023-08-21T12:34:02;41.00;39.50
26909;DHT22;14477;51.038;4.588;2023-08-21T12:36:29;41.00;39.10
26909;DHT22;14477;51.038;4.588;2023-08-21T12:38:55;41.00;39.20
26909;DHT22;14477;51.038;4.588;2023-08-21T12:41:20;40.90;38.80
26909;DHT22;14477;51.038;4.588;2023-08-21T12:43:46;40.70;38.00
26909;DHT22;14477;51.038;4.588;2023-08-21T12:46:13;40.50;37.70
26909;DHT22;14477;51.038;4.588;2023-08-21T12:48:39;40.00;37.30
26909;DHT22;14477;51.038;4.588;2023-08-21T12:51:05;39.60;37.40
26909;DHT22;14477;51.038;4.588;2023-08-21T12:53:30;39.30;37.80
26909;DHT22;14477;51.038;4.588;2023-08-21T12:55:56;38.90;38.40
26909;DHT22;14477;51.038;4.588;2023-08-21T12:58:22;38.80;39.10
26909;DHT22;14477;51.038;4.588;2023-08-21T13:00:47;38.70;39.20
26909;DHT22;14477;51.038;4.588;2023-08-21T13:03:13;38.70;39.60
26909;DHT22;14477;51.038;4.588;2023-08-21T13:05:39;38.80;40.00
26909;DHT22;14477;51.038;4.588;2023-08-21T13:08:05;39.00;40.20
26909;DHT22;14477;51.038;4.588;2023-08-21T13:10:31;39.20;40.30
26909;DHT22;14477;51.038;4.588;2023-08-21T13:12:57;39.40;40.10
26909;DHT22;14477;51.038;4.588;2023-08-21T13:15:23;39.60;40.20
26909;DHT22;14477;51.038;4.588;2023-08-21T13:17:48;39.80;39.80
26909;DHT22;14477;51.038;4.588;2023-08-21T13:20:14;39.90;39.60
26909;DHT22;14477;51.038;4.588;2023-08-21T13:22:50;40.10;39.30
26909;DHT22;14477;51.038;4.588;2023-08-21T13:25:19;40.30;38.30
26909;DHT22;14477;51.038;4.588;2023-08-21T13:27:45;40.40;38.50
26909;DHT22;14477;51.038;4.588;2023-08-21T13:30:12;40.40;38.50
26909;DHT22;14477;51.038;4.588;2023-08-21T13:32:38;40.30;38.00
26909;DHT22;14477;51.038;4.588;2023-08-21T13:35:04;40.30;38.10
26909;DHT22;14477;51.038;4.588;2023-08-21T13:37:32;40.40;38.00
26909;DHT22;14477;51.038;4.588;2023-08-21T13:39:58;40.30;37.70
26909;DHT22;14477;51.038;4.588;2023-08-21T13:42:26;40.40;37.70
26909;DHT22;14477;51.038;4.588;2023-08-21T13:44:56;40.30;37.50
26909;DHT22;14477;51.038;4.588;2023-08-21T13:47:22;40.30;37.20
26909;DHT22;14477;51.038;4.588;2023-08-21T13:49:48;40.30;37.20
26909;DHT22;14477;51.038;4.588;2023-08-21T13:52:14;40.30;37.00
26909;DHT22;14477;51.038;4.588;2023-08-21T13:54:40;40.20;36.90
26909;DHT22;14477;51.038;4.588;2023-08-21T13:57:05;40.20;36.70
26909;DHT22;14477;51.038;4.588;2023-08-21T13:59:31;40.10;36.40
26909;DHT22;14477;51.038;4.588;2023-08-21T14:01:57;40.00;36.50
26909;DHT22;14477;51.038;4.588;2023-08-21T14:04:23;39.80;36.30
26909;DHT22;14477;51.038;4.588;2023-08-21T14:06:49;39.70;36.00
26909;DHT22;14477;51.038;4.588;2023-08-21T14:09:15;39.50;35.90
26909;DHT22;14477;51.038;4.588;2023-08-21T14:11:41;39.30;35.80
26909;DHT22;14477;51.038;4.588;2023-08-21T14:14:08;39.10;35.80
26909;DHT22;14477;51.038;4.588;2023-08-21T14:16:34;38.90;36.30
26909;DHT22;14477;51.038;4.588;2023-08-21T14:19:00;38.60;35.80
26909;DHT22;14477;51.038;4.588;2023-08-21T14:21:26;38.40;36.30
26909;DHT22;14477;51.038;4.588;2023-08-21T14:23:51;38.10;36.30
26909;DHT22;14477;51.038;4.588;2023-08-21T14:26:17;38.00;36.60
26909;DHT22;14477;51.038;4.588;2023-08-21T14:28:43;37.80;36.70
26909;DHT22;14477;51.038;4.588;2023-08-21T14:31:16;37.70;37.00
26909;DHT22;14477;51.038;4.588;2023-08-21T14:33:42;37.60;36.80
26909;DHT22;14477;51.038;4.588;2023-08-21T14:36:08;37.50;36.70
26909;DHT22;14477;51.038;4.588;2023-08-21T14:38:34;37.30;36.90
26909;DHT22;14477;51.038;4.588;2023-08-21T14:41:00;37.20;37.20
26909;DHT22;14477;51.038;4.588;2023-08-21T14:43:26;37.10;37.20
26909;DHT22;14477;51.038;4.588;2023-08-21T14:45:53;37.00;37.30
26909;DHT22;14477;51.038;4.588;2023-08-21T14:48:19;36.90;37.30
26909;DHT22;14477;51.038;4.588;2023-08-21T14:50:45;36.80;37.40
26909;DHT22;14477;51.038;4.588;2023-08-21T14:53:11;36.70;37.80
26909;DHT22;14477;51.038;4.588;2023-08-21T14:55:37;36.60;37.80
26909;DHT22;14477;51.038;4.588;2023-08-21T14:58:03;36.50;37.80
26909;DHT22;14477;51.038;4.588;2023-08-21T15:00:32;36.40;37.60
26909;DHT22;14477;51.038;4.588;2023-08-21T15:02:58;36.20;37.50
26909;DHT22;14477;51.038;4.588;2023-08-21T15:05:26;36.00;37.90
26909;DHT22;14477;51.038;4.588;2023-08-21T15:07:52;35.90;38.00
26909;DHT22;14477;51.038;4.588;2023-08-21T15:10:20;35.90;38.20
26909;DHT22;14477;51.038;4.588;2023-08-21T15:12:46;35.80;38.40
26909;DHT22;14477;51.038;4.588;2023-08-21T15:15:12;35.80;38.30
26909;DHT22;14477;51.038;4.588;2023-08-21T15:17:38;35.70;38.00
26909;DHT22;14477;51.038;4.588;2023-08-21T15:20:04;35.60;37.80
26909;DHT22;14477;51.038;4.588;2023-08-21T15:22:31;35.50;37.70
26909;DHT22;14477;51.038;4.588;2023-08-21T15:24:57;35.40;37.60
26909;DHT22;14477;51.038;4.588;2023-08-21T15:27:22;35.20;37.80
26909;DHT22;14477;51.038;4.588;2023-08-21T15:29:48;35.10;38.20
26909;DHT22;14477;51.038;4.588;2023-08-21T15:32:14;35.00;38.30
26909;DHT22;14477;51.038;4.588;2023-08-21T15:34:40;34.90;38.20
26909;DHT22;14477;51.038;4.588;2023-08-21T15:37:06;34.70;38.10
26909;DHT22;14477;51.038;4.588;2023-08-21T15:39:32;34.60;38.30